West Petersburg, Indiana
Current Conditions -  °F | °C
As of 11:15 AM on Thursday 27 Nov 2014 (Local Time) from KDCY Reporting Station
Overcast Overcast  
Wind Chill: 20°   Ceiling: 1900
Heat Index: 30°   Visibility: 10mi
Dew Point: 25°   Wind: 13mph
Humidity: 83%   Direction: 310°NW
Pressure: 30.41"   Gusts: NA
Location:  38.4723°N, 87.3105°W
Report Text: KDCY 271715Z AUTO 31011KT 10SM BKN019 OVC060 M01/M04 A3041 RMK AO2 T10121038
Loading
Personal Weather Stations






























Interactive Weather Map New forecast layout! Learn more

10-Day Weather Forecast

Advertisements
Track Severe Weather on mobile